sensor_id;sensor_type;location;lat;lon;timestamp;pressure;altitude;pressure_sealevel;temperature;humidity
38038;BME280;23843;51.320;12.340;2024-02-26T00:00:06;98972.63;;;7.39;54.24
38038;BME280;23843;51.320;12.340;2024-02-26T00:02:32;98982.75;;;7.33;55.41
38038;BME280;23843;51.320;12.340;2024-02-26T00:04:59;98971.09;;;7.31;55.75
38038;BME280;23843;51.320;12.340;2024-02-26T00:07:25;98971.63;;;7.28;55.28
38038;BME280;23843;51.320;12.340;2024-02-26T00:09:50;98970.53;;;7.29;54.85
38038;BME280;23843;51.320;12.340;2024-02-26T00:12:16;98967.19;;;7.27;54.47
38038;BME280;23843;51.320;12.340;2024-02-26T00:14:41;98972.69;;;7.27;55.27
38038;BME280;23843;51.320;12.340;2024-02-26T00:17:07;98966.56;;;7.25;55.53
38038;BME280;23843;51.320;12.340;2024-02-26T00:19:32;98965.16;;;7.23;54.58
38038;BME280;23843;51.320;12.340;2024-02-26T00:21:59;98966.25;;;7.22;55.25
38038;BME280;23843;51.320;12.340;2024-02-26T00:24:25;98964.34;;;7.22;55.05
38038;BME280;23843;51.320;12.340;2024-02-26T00:26:50;98959.88;;;7.21;55.56
38038;BME280;23843;51.320;12.340;2024-02-26T00:29:16;98965.06;;;7.18;55.66
38038;BME280;23843;51.320;12.340;2024-02-26T00:31:41;98961.97;;;7.14;55.87
38038;BME280;23843;51.320;12.340;2024-02-26T00:34:07;98956.44;;;7.14;54.75
38038;BME280;23843;51.320;12.340;2024-02-26T00:36:32;98952.00;;;7.13;55.37
38038;BME280;23843;51.320;12.340;2024-02-26T00:38:59;98949.25;;;7.13;55.75
38038;BME280;23843;51.320;12.340;2024-02-26T00:41:24;98949.00;;;7.15;56.19
38038;BME280;23843;51.320;12.340;2024-02-26T00:43:50;98946.47;;;7.13;56.08
38038;BME280;23843;51.320;12.340;2024-02-26T00:46:15;98953.69;;;7.14;55.81
38038;BME280;23843;51.320;12.340;2024-02-26T00:48:41;98940.44;;;7.16;55.32
38038;BME280;23843;51.320;12.340;2024-02-26T00:51:06;98926.63;;;7.16;56.22
38038;BME280;23843;51.320;12.340;2024-02-26T00:53:32;98939.63;;;7.16;56.21
38038;BME280;23843;51.320;12.340;2024-02-26T00:55:59;98941.56;;;7.15;55.76
38038;BME280;23843;51.320;12.340;2024-02-26T00:58:24;98938.53;;;7.17;55.74
38038;BME280;23843;51.320;12.340;2024-02-26T01:00:50;98929.41;;;7.16;55.74
38038;BME280;23843;51.320;12.340;2024-02-26T01:03:15;98941.78;;;7.14;55.72
38038;BME280;23843;51.320;12.340;2024-02-26T01:05:41;98930.63;;;7.09;55.38
38038;BME280;23843;51.320;12.340;2024-02-26T01:08:06;98933.91;;;7.06;55.83
38038;BME280;23843;51.320;12.340;2024-02-26T01:10:32;98928.38;;;7.06;56.35
38038;BME280;23843;51.320;12.340;2024-02-26T01:12:59;98929.47;;;7.04;55.86
38038;BME280;23843;51.320;12.340;2024-02-26T01:15:24;98930.56;;;7.03;55.92
38038;BME280;23843;51.320;12.340;2024-02-26T01:17:50;98931.38;;;7.04;56.47
38038;BME280;23843;51.320;12.340;2024-02-26T01:20:16;98925.03;;;7.03;56.32
38038;BME280;23843;51.320;12.340;2024-02-26T01:22:42;98924.69;;;7.00;56.38
38038;BME280;23843;51.320;12.340;2024-02-26T01:25:08;98916.66;;;6.98;56.21
38038;BME280;23843;51.320;12.340;2024-02-26T01:27:33;98919.19;;;7.00;56.24
38038;BME280;23843;51.320;12.340;2024-02-26T01:30:01;98916.41;;;7.00;55.63
38038;BME280;23843;51.320;12.340;2024-02-26T01:32:26;98914.75;;;6.99;55.74
38038;BME280;23843;51.320;12.340;2024-02-26T01:34:52;98910.31;;;6.98;56.38
38038;BME280;23843;51.320;12.340;2024-02-26T01:37:17;98899.25;;;6.98;56.08
38038;BME280;23843;51.320;12.340;2024-02-26T01:39:42;98895.91;;;6.96;55.86
38038;BME280;23843;51.320;12.340;2024-02-26T01:42:08;98901.09;;;6.92;55.87
38038;BME280;23843;51.320;12.340;2024-02-26T01:44:33;98889.69;;;6.89;56.27
38038;BME280;23843;51.320;12.340;2024-02-26T01:47:00;98892.97;;;6.86;55.50
38038;BME280;23843;51.320;12.340;2024-02-26T01:49:26;98892.38;;;6.84;55.83
38038;BME280;23843;51.320;12.340;2024-02-26T01:51:51;98884.84;;;6.79;56.08
38038;BME280;23843;51.320;12.340;2024-02-26T01:54:17;98888.94;;;6.77;56.50
38038;BME280;23843;51.320;12.340;2024-02-26T01:56:43;98884.47;;;6.76;56.97
38038;BME280;23843;51.320;12.340;2024-02-26T01:59:09;98882.31;;;6.78;56.49
38038;BME280;23843;51.320;12.340;2024-02-26T02:01:34;98886.75;;;6.79;56.39
38038;BME280;23843;51.320;12.340;2024-02-26T02:04:02;98876.81;;;6.78;56.07
38038;BME280;23843;51.320;12.340;2024-02-26T02:06:27;98877.66;;;6.78;55.83
38038;BME280;23843;51.320;12.340;2024-02-26T02:08:54;98877.03;;;6.76;56.50
38038;BME280;23843;51.320;12.340;2024-02-26T02:11:20;98877.03;;;6.76;55.95
38038;BME280;23843;51.320;12.340;2024-02-26T02:13:46;98872.97;;;6.79;56.72
38038;BME280;23843;51.320;12.340;2024-02-26T02:16:12;98871.84;;;6.80;56.33
38038;BME280;23843;51.320;12.340;2024-02-26T02:18:37;98860.72;;;6.75;56.63
38038;BME280;23843;51.320;12.340;2024-02-26T02:21:04;98867.56;;;6.72;56.74
38038;BME280;23843;51.320;12.340;2024-02-26T02:23:30;98872.53;;;6.70;56.99
38038;BME280;23843;51.320;12.340;2024-02-26T02:25:56;98878.28;;;6.69;56.93
38038;BME280;23843;51.320;12.340;2024-02-26T02:28:23;98878.28;;;6.69;56.60
38038;BME280;23843;51.320;12.340;2024-02-26T02:30:50;98881.28;;;6.67;56.28
38038;BME280;23843;51.320;12.340;2024-02-26T02:33:16;98890.16;;;6.69;56.40
38038;BME280;23843;51.320;12.340;2024-02-26T02:35:41;98879.13;;;6.69;57.00
38038;BME280;23843;51.320;12.340;2024-02-26T02:38:09;98878.53;;;6.67;55.97
38038;BME280;23843;51.320;12.340;2024-02-26T02:40:34;98880.44;;;6.67;56.49
38038;BME280;23843;51.320;12.340;2024-02-26T02:43:00;98879.88;;;6.64;56.26
38038;BME280;23843;51.320;12.340;2024-02-26T02:45:26;98892.81;;;6.64;56.54
38038;BME280;23843;51.320;12.340;2024-02-26T02:47:51;98889.94;;;6.59;57.23
38038;BME280;23843;51.320;12.340;2024-02-26T02:50:17;98899.31;;;6.58;56.50
38038;BME280;23843;51.320;12.340;2024-02-26T02:52:42;98899.56;;;6.56;57.54
38038;BME280;23843;51.320;12.340;2024-02-26T02:55:09;98893.69;;;6.53;57.24
38038;BME280;23843;51.320;12.340;2024-02-26T02:57:35;98897.06;;;6.55;56.77
38038;BME280;23843;51.320;12.340;2024-02-26T03:00:00;98904.72;;;6.53;57.32
38038;BME280;23843;51.320;12.340;2024-02-26T03:02:26;98912.16;;;6.52;57.18
38038;BME280;23843;51.320;12.340;2024-02-26T03:04:51;98908.81;;;6.50;56.75
38038;BME280;23843;51.320;12.340;2024-02-26T03:07:16;98910.75;;;6.50;57.65
38038;BME280;23843;51.320;12.340;2024-02-26T03:09:42;98914.59;;;6.49;56.71
38038;BME280;23843;51.320;12.340;2024-02-26T03:12:09;98915.44;;;6.49;57.34
38038;BME280;23843;51.320;12.340;2024-02-26T03:14:34;98919.28;;;6.48;56.90
38038;BME280;23843;51.320;12.340;2024-02-26T03:17:00;98923.00;;;6.42;57.27
38038;BME280;23843;51.320;12.340;2024-02-26T03:19:25;98911.13;;;6.42;57.11
38038;BME280;23843;51.320;12.340;2024-02-26T03:21:51;98910.88;;;6.43;57.25
38038;BME280;23843;51.320;12.340;2024-02-26T03:24:16;98925.50;;;6.44;57.39
38038;BME280;23843;51.320;12.340;2024-02-26T03:26:42;98918.66;;;6.46;56.88
38038;BME280;23843;51.320;12.340;2024-02-26T03:29:09;98915.31;;;6.44;56.68
38038;BME280;23843;51.320;12.340;2024-02-26T03:31:34;98915.91;;;6.46;57.03
38038;BME280;23843;51.320;12.340;2024-02-26T03:34:00;98916.66;;;6.42;56.58
38038;BME280;23843;51.320;12.340;2024-02-26T03:36:25;98926.47;;;6.38;56.96
38038;BME280;23843;51.320;12.340;2024-02-26T03:38:51;98920.34;;;6.36;56.73
38038;BME280;23843;51.320;12.340;2024-02-26T03:41:16;98925.06;;;6.35;57.41
38038;BME280;23843;51.320;12.340;2024-02-26T03:43:42;98924.47;;;6.33;57.55
38038;BME280;23843;51.320;12.340;2024-02-26T03:46:09;98916.56;;;6.25;56.89
38038;BME280;23843;51.320;12.340;2024-02-26T03:48:35;98930.72;;;6.17;56.80
38038;BME280;23843;51.320;12.340;2024-02-26T03:51:00;98929.78;;;6.11;56.85
38038;BME280;23843;51.320;12.340;2024-02-26T03:53:26;98928.56;;;6.07;57.69
38038;BME280;23843;51.320;12.340;2024-02-26T03:55:51;98927.16;;;6.05;57.58
38038;BME280;23843;51.320;12.340;2024-02-26T03:58:17;98926.69;;;5.96;57.47
38038;BME280;23843;51.320;12.340;2024-02-26T04:00:42;98928.72;;;5.89;57.69
38038;BME280;23843;51.320;12.340;2024-02-26T04:03:09;98926.19;;;5.88;57.32
38038;BME280;23843;51.320;12.340;2024-02-26T04:05:35;98932.75;;;5.86;57.34
38038;BME280;23843;51.320;12.340;2024-02-26T04:08:00;98934.09;;;5.84;57.24
38038;BME280;23843;51.320;12.340;2024-02-26T04:10:26;98930.97;;;5.80;57.96
38038;BME280;23843;51.320;12.340;2024-02-26T04:12:51;98928.94;;;5.76;57.91
38038;BME280;23843;51.320;12.340;2024-02-26T04:15:17;98935.97;;;5.72;57.93
38038;BME280;23843;51.320;12.340;2024-02-26T04:17:42;98942.22;;;5.67;57.47
38038;BME280;23843;51.320;12.340;2024-02-26T04:20:13;98932.16;;;5.61;57.52
38038;BME280;23843;51.320;12.340;2024-02-26T04:22:39;98936.84;;;5.61;57.77
38038;BME280;23843;51.320;12.340;2024-02-26T04:25:05;98936.69;;;5.56;58.44
38038;BME280;23843;51.320;12.340;2024-02-26T04:27:31;98931.91;;;5.51;58.55
38038;BME280;23843;51.320;12.340;2024-02-26T04:29:56;98935.63;;;5.45;58.63
38038;BME280;23843;51.320;12.340;2024-02-26T04:32:22;98926.13;;;5.41;58.35
38038;BME280;23843;51.320;12.340;2024-02-26T04:34:47;98924.22;;;5.41;58.27
38038;BME280;23843;51.320;12.340;2024-02-26T04:37:14;98932.38;;;5.36;58.16
38038;BME280;23843;51.320;12.340;2024-02-26T04:39:39;98935.56;;;5.33;58.54
38038;BME280;23843;51.320;12.340;2024-02-26T04:42:05;98935.84;;;5.32;58.53
38038;BME280;23843;51.320;12.340;2024-02-26T04:44:31;98937.75;;;5.31;58.59
38038;BME280;23843;51.320;12.340;2024-02-26T04:46:56;98930.78;;;5.29;58.82
38038;BME280;23843;51.320;12.340;2024-02-26T04:49:21;98943.72;;;5.28;59.21
38038;BME280;23843;51.320;12.340;2024-02-26T04:51:47;98937.38;;;5.28;58.63
38038;BME280;23843;51.320;12.340;2024-02-26T04:54:14;98938.81;;;5.30;58.94
38038;BME280;23843;51.320;12.340;2024-02-26T04:56:39;98930.56;;;5.30;58.77
38038;BME280;23843;51.320;12.340;2024-02-26T04:59:05;98929.50;;;5.31;58.62
38038;BME280;23843;51.320;12.340;2024-02-26T05:01:30;98934.38;;;5.29;58.83
38038;BME280;23843;51.320;12.340;2024-02-26T05:03:56;98942.88;;;5.28;58.91
38038;BME280;23843;51.320;12.340;2024-02-26T05:06:21;98941.19;;;5.27;59.28
38038;BME280;23843;51.320;12.340;2024-02-26T05:08:47;98948.88;;;5.25;58.90
38038;BME280;23843;51.320;12.340;2024-02-26T05:11:14;98952.31;;;5.20;59.53
38038;BME280;23843;51.320;12.340;2024-02-26T05:13:39;98955.06;;;5.20;59.30
38038;BME280;23843;51.320;12.340;2024-02-26T05:16:05;98952.31;;;5.20;59.34
38038;BME280;23843;51.320;12.340;2024-02-26T05:18:30;98959.38;;;5.16;59.63
38038;BME280;23843;51.320;12.340;2024-02-26T05:20:56;98956.63;;;5.16;59.40
38038;BME280;23843;51.320;12.340;2024-02-26T05:23:21;98950.88;;;5.18;59.55
38038;BME280;23843;51.320;12.340;2024-02-26T05:25:48;98958.66;;;5.21;59.64
38038;BME280;23843;51.320;12.340;2024-02-26T05:28:15;98957.97;;;5.25;59.14
38038;BME280;23843;51.320;12.340;2024-02-26T05:30:40;98957.72;;;5.27;59.58
38038;BME280;23843;51.320;12.340;2024-02-26T05:33:05;98955.56;;;5.29;59.67
38038;BME280;23843;51.320;12.340;2024-02-26T05:35:31;98954.28;;;5.31;59.41
38038;BME280;23843;51.320;12.340;2024-02-26T05:37:57;98951.28;;;5.33;59.49
38038;BME280;23843;51.320;12.340;2024-02-26T05:40:22;98953.78;;;5.34;58.92
38038;BME280;23843;51.320;12.340;2024-02-26T05:42:48;98952.94;;;5.34;59.22
38038;BME280;23843;51.320;12.340;2024-02-26T05:45:15;98946.25;;;5.30;59.45
38038;BME280;23843;51.320;12.340;2024-02-26T05:47:40;98952.59;;;5.30;59.43
38038;BME280;23843;51.320;12.340;2024-02-26T05:50:07;98953.31;;;5.26;59.68
38038;BME280;23843;51.320;12.340;2024-02-26T05:52:33;98948.25;;;5.23;59.54
38038;BME280;23843;51.320;12.340;2024-02-26T05:54:58;98951.25;;;5.21;59.79
38038;BME280;23843;51.320;12.340;2024-02-26T05:57:24;98952.94;;;5.22;59.67
38038;BME280;23843;51.320;12.340;2024-02-26T05:59:49;98948.72;;;5.20;60.00
38038;BME280;23843;51.320;12.340;2024-02-26T06:02:16;98954.09;;;5.15;60.12
38038;BME280;23843;51.320;12.340;2024-02-26T06:04:41;98948.38;;;5.16;60.03
38038;BME280;23843;51.320;12.340;2024-02-26T06:07:07;98948.97;;;5.18;60.14
38038;BME280;23843;51.320;12.340;2024-02-26T06:09:32;98946.22;;;5.18;60.00
38038;BME280;23843;51.320;12.340;2024-02-26T06:11:58;98958.66;;;5.21;60.14
38038;BME280;23843;51.320;12.340;2024-02-26T06:14:23;98951.84;;;5.23;59.98
38038;BME280;23843;51.320;12.340;2024-02-26T06:16:49;98954.84;;;5.22;60.12
38038;BME280;23843;51.320;12.340;2024-02-26T06:19:16;98956.28;;;5.24;60.41
38038;BME280;23843;51.320;12.340;2024-02-26T06:21:41;98960.25;;;5.28;60.54
38038;BME280;23843;51.320;12.340;2024-02-26T06:24:07;98948.38;;;5.28;59.83
38038;BME280;23843;51.320;12.340;2024-02-26T06:26:32;98957.25;;;5.30;60.19
38038;BME280;23843;51.320;12.340;2024-02-26T06:28:58;98951.28;;;5.33;60.44
38038;BME280;23843;51.320;12.340;2024-02-26T06:31:23;98959.53;;;5.33;60.56
38038;BME280;23843;51.320;12.340;2024-02-26T06:33:49;98962.31;;;5.33;60.49
38038;BME280;23843;51.320;12.340;2024-02-26T06:36:16;98971.16;;;5.35;60.50
38038;BME280;23843;51.320;12.340;2024-02-26T06:38:41;98972.38;;;5.39;60.82
38038;BME280;23843;51.320;12.340;2024-02-26T06:41:07;98970.56;;;5.44;60.23
38038;BME280;23843;51.320;12.340;2024-02-26T06:43:32;98981.25;;;5.53;60.58
38038;BME280;23843;51.320;12.340;2024-02-26T06:45:58;98974.66;;;5.54;60.82
38038;BME280;23843;51.320;12.340;2024-02-26T06:48:23;98977.53;;;5.59;60.31
38038;BME280;23843;51.320;12.340;2024-02-26T06:50:49;98983.53;;;5.67;60.17
38038;BME280;23843;51.320;12.340;2024-02-26T06:53:16;98983.44;;;5.74;60.22
38038;BME280;23843;51.320;12.340;2024-02-26T06:55:41;98990.28;;;5.83;60.35
38038;BME280;23843;51.320;12.340;2024-02-26T06:58:07;98992.72;;;5.91;60.08
38038;BME280;23843;51.320;12.340;2024-02-26T07:00:32;99001.22;;;6.01;60.09
38038;BME280;23843;51.320;12.340;2024-02-26T07:02:58;98996.44;;;6.20;60.57
38038;BME280;23843;51.320;12.340;2024-02-26T07:05:23;98998.44;;;6.36;59.81
38038;BME280;23843;51.320;12.340;2024-02-26T07:07:49;98997.09;;;6.50;60.67
38038;BME280;23843;51.320;12.340;2024-02-26T07:10:17;98997.69;;;6.64;59.71
38038;BME280;23843;51.320;12.340;2024-02-26T07:12:42;98996.19;;;6.73;60.39
38038;BME280;23843;51.320;12.340;2024-02-26T07:15:09;98999.94;;;6.79;60.40
38038;BME280;23843;51.320;12.340;2024-02-26T07:17:35;98999.50;;;6.87;60.74
38038;BME280;23843;51.320;12.340;2024-02-26T07:20:00;98993.59;;;6.95;60.21
38038;BME280;23843;51.320;12.340;2024-02-26T07:22:26;98993.22;;;7.03;60.31
38038;BME280;23843;51.320;12.340;2024-02-26T07:24:51;99002.78;;;7.12;60.99
38038;BME280;23843;51.320;12.340;2024-02-26T07:27:19;98998.31;;;7.23;59.68
38038;BME280;23843;51.320;12.340;2024-02-26T07:29:44;99000.16;;;7.34;60.62
38038;BME280;23843;51.320;12.340;2024-02-26T07:32:10;98992.56;;;7.41;60.59
38038;BME280;23843;51.320;12.340;2024-02-26T07:34:35;98992.41;;;7.48;60.30
38038;BME280;23843;51.320;12.340;2024-02-26T07:37:01;98996.53;;;7.62;60.79
38038;BME280;23843;51.320;12.340;2024-02-26T07:39:26;99001.47;;;7.76;59.97
38038;BME280;23843;51.320;12.340;2024-02-26T07:41:52;98998.66;;;7.88;60.16
38038;BME280;23843;51.320;12.340;2024-02-26T07:44:19;99000.41;;;7.94;60.52
38038;BME280;23843;51.320;12.340;2024-02-26T07:46:44;98988.06;;;8.02;59.74
38038;BME280;23843;51.320;12.340;2024-02-26T07:49:10;98998.84;;;8.20;60.64
38038;BME280;23843;51.320;12.340;2024-02-26T07:51:35;98993.28;;;8.32;60.35
38038;BME280;23843;51.320;12.340;2024-02-26T07:54:01;98999.28;;;8.45;60.06
38038;BME280;23843;51.320;12.340;2024-02-26T07:56:27;99002.16;;;8.55;59.95
38038;BME280;23843;51.320;12.340;2024-02-26T07:58:53;99003.22;;;8.71;60.33
38038;BME280;23843;51.320;12.340;2024-02-26T08:01:20;98998.72;;;8.87;59.79
38038;BME280;23843;51.320;12.340;2024-02-26T08:03:45;99008.31;;;9.01;59.97
38038;BME280;23843;51.320;12.340;2024-02-26T08:06:11;99014.22;;;9.10;59.78
38038;BME280;23843;51.320;12.340;2024-02-26T08:08:36;99011.84;;;9.18;60.01
38038;BME280;23843;51.320;12.340;2024-02-26T08:11:02;99017.69;;;9.22;60.15
38038;BME280;23843;51.320;12.340;2024-02-26T08:13:28;99018.66;;;9.32;60.46
38038;BME280;23843;51.320;12.340;2024-02-26T08:15:53;99014.88;;;9.44;59.94
38038;BME280;23843;51.320;12.340;2024-02-26T08:18:20;99016.88;;;9.48;59.92
38038;BME280;23843;51.320;12.340;2024-02-26T08:20:45;99011.44;;;9.58;60.00
38038;BME280;23843;51.320;12.340;2024-02-26T08:23:11;99014.53;;;9.62;59.83
38038;BME280;23843;51.320;12.340;2024-02-26T08:25:36;99019.81;;;9.63;59.69
38038;BME280;23843;51.320;12.340;2024-02-26T08:28:02;99018.75;;;9.69;59.91
38038;BME280;23843;51.320;12.340;2024-02-26T08:30:28;99030.28;;;9.88;59.66
38038;BME280;23843;51.320;12.340;2024-02-26T08:32:53;99018.28;;;10.09;59.46
38038;BME280;23843;51.320;12.340;2024-02-26T08:35:20;99023.22;;;10.34;59.56
38038;BME280;23843;51.320;12.340;2024-02-26T08:37:46;99024.19;;;10.55;59.61
38038;BME280;23843;51.320;12.340;2024-02-26T08:40:12;99022.31;;;10.66;59.89
38038;BME280;23843;51.320;12.340;2024-02-26T08:42:37;99019.34;;;10.82;60.12
38038;BME280;23843;51.320;12.340;2024-02-26T08:45:03;99027.25;;;11.11;60.07
38038;BME280;23843;51.320;12.340;2024-02-26T08:47:28;99023.47;;;11.32;59.70
38038;BME280;23843;51.320;12.340;2024-02-26T08:49:54;99029.06;;;11.52;59.41
38038;BME280;23843;51.320;12.340;2024-02-26T08:52:21;99026.94;;;11.75;59.51
38038;BME280;23843;51.320;12.340;2024-02-26T08:54:46;99033.34;;;12.00;59.95
38038;BME280;23843;51.320;12.340;2024-02-26T08:57:12;99027.50;;;12.27;59.36
38038;BME280;23843;51.320;12.340;2024-02-26T08:59:37;99031.09;;;12.43;59.72
38038;BME280;23843;51.320;12.340;2024-02-26T09:02:03;99025.22;;;12.65;59.24
38038;BME280;23843;51.320;12.340;2024-02-26T09:04:28;99025.16;;;13.00;59.16
38038;BME280;23843;51.320;12.340;2024-02-26T09:06:54;99029.25;;;13.28;58.75
38038;BME280;23843;51.320;12.340;2024-02-26T09:09:21;99029.13;;;13.48;58.44
38038;BME280;23843;51.320;12.340;2024-02-26T09:11:47;99018.13;;;13.67;57.92
38038;BME280;23843;51.320;12.340;2024-02-26T09:14:12;99023.63;;;13.82;58.02
38038;BME280;23843;51.320;12.340;2024-02-26T09:16:38;99020.16;;;13.95;58.14
38038;BME280;23843;51.320;12.340;2024-02-26T09:19:03;99019.16;;;14.20;58.04
38038;BME280;23843;51.320;12.340;2024-02-26T09:21:29;99010.88;;;14.44;57.67
38038;BME280;23843;51.320;12.340;2024-02-26T09:23:54;99008.00;;;14.78;57.53
38038;BME280;23843;51.320;12.340;2024-02-26T09:26:21;99008.91;;;14.97;57.09
38038;BME280;23843;51.320;12.340;2024-02-26T09:28:47;99019.78;;;14.99;56.76
38038;BME280;23843;51.320;12.340;2024-02-26T09:31:13;99011.38;;;15.04;57.41
38038;BME280;23843;51.320;12.340;2024-02-26T09:33:38;99008.59;;;15.23;56.88
38038;BME280;23843;51.320;12.340;2024-02-26T09:36:04;99015.50;;;15.30;57.14
38038;BME280;23843;51.320;12.340;2024-02-26T09:38:30;99004.09;;;15.27;55.87
38038;BME280;23843;51.320;12.340;2024-02-26T09:40:56;99005.81;;;15.23;56.64
38038;BME280;23843;51.320;12.340;2024-02-26T09:43:23;99018.38;;;15.25;56.25
38038;BME280;23843;51.320;12.340;2024-02-26T09:45:50;99018.78;;;15.13;56.20
38038;BME280;23843;51.320;12.340;2024-02-26T09:48:17;99018.44;;;14.96;56.02
38038;BME280;23843;51.320;12.340;2024-02-26T09:50:43;99012.72;;;14.83;55.65
38038;BME280;23843;51.320;12.340;2024-02-26T09:53:10;99018.97;;;14.74;55.57
38038;BME280;23843;51.320;12.340;2024-02-26T09:55:36;99021.94;;;14.54;55.47
38038;BME280;23843;51.320;12.340;2024-02-26T09:58:04;99035.47;;;14.42;55.55
38038;BME280;23843;51.320;12.340;2024-02-26T10:00:32;99023.78;;;14.35;55.52
38038;BME280;23843;51.320;12.340;2024-02-26T10:03:04;99032.16;;;14.35;55.24
38038;BME280;23843;51.320;12.340;2024-02-26T10:05:30;99026.75;;;14.15;54.92
38038;BME280;23843;51.320;12.340;2024-02-26T10:07:57;99022.94;;;14.00;54.91
38038;BME280;23843;51.320;12.340;2024-02-26T10:10:23;99027.19;;;13.93;54.96
38038;BME280;23843;51.320;12.340;2024-02-26T10:12:49;99024.16;;;13.84;55.07
38038;BME280;23843;51.320;12.340;2024-02-26T10:15:15;99028.44;;;13.72;54.98
38038;BME280;23843;51.320;12.340;2024-02-26T10:17:42;99024.91;;;13.56;54.97
38038;BME280;23843;51.320;12.340;2024-02-26T10:20:14;99023.88;;;13.42;54.92
38038;BME280;23843;51.320;12.340;2024-02-26T10:22:40;99037.84;;;13.37;55.23
38038;BME280;23843;51.320;12.340;2024-02-26T10:25:06;99039.25;;;13.34;54.83
38038;BME280;23843;51.320;12.340;2024-02-26T10:27:32;99032.03;;;13.28;54.33
38038;BME280;23843;51.320;12.340;2024-02-26T10:29:57;99035.13;;;13.16;53.99
38038;BME280;23843;51.320;12.340;2024-02-26T10:32:23;99031.53;;;13.06;54.36
38038;BME280;23843;51.320;12.340;2024-02-26T10:34:55;99037.38;;;13.04;54.87
38038;BME280;23843;51.320;12.340;2024-02-26T10:37:22;99036.28;;;13.00;54.59
38038;BME280;23843;51.320;12.340;2024-02-26T10:39:47;99036.28;;;13.00;54.79
38038;BME280;23843;51.320;12.340;2024-02-26T10:42:13;99044.09;;;12.98;54.92
38038;BME280;23843;51.320;12.340;2024-02-26T10:44:40;99041.06;;;12.90;54.38
38038;BME280;23843;51.320;12.340;2024-02-26T10:47:05;99048.31;;;12.85;54.77
38038;BME280;23843;51.320;12.340;2024-02-26T10:49:35;99046.09;;;12.82;54.72
38038;BME280;23843;51.320;12.340;2024-02-26T10:52:03;99045.25;;;12.82;54.70
38038;BME280;23843;51.320;12.340;2024-02-26T10:54:29;99052.50;;;12.83;54.61
38038;BME280;23843;51.320;12.340;2024-02-26T10:56:59;99037.44;;;12.89;54.94
38038;BME280;23843;51.320;12.340;2024-02-26T10:59:24;99048.28;;;12.96;54.89
38038;BME280;23843;51.320;12.340;2024-02-26T11:01:51;99043.00;;;12.99;54.45
38038;BME280;23843;51.320;12.340;2024-02-26T11:04:17;99045.22;;;12.97;54.25
38038;BME280;23843;51.320;12.340;2024-02-26T11:06:43;99047.19;;;12.92;54.35
38038;BME280;23843;51.320;12.340;2024-02-26T11:09:11;99054.19;;;12.84;54.24
38038;BME280;23843;51.320;12.340;2024-02-26T11:11:37;99052.78;;;12.81;54.13
38038;BME280;23843;51.320;12.340;2024-02-26T11:14:03;99049.19;;;12.76;54.79
38038;BME280;23843;51.320;12.340;2024-02-26T11:16:28;99050.00;;;12.76;54.41
38038;BME280;23843;51.320;12.340;2024-02-26T11:18:55;99046.63;;;12.79;54.30
38038;BME280;23843;51.320;12.340;2024-02-26T11:21:23;99045.53;;;12.80;54.72
38038;BME280;23843;51.320;12.340;2024-02-26T11:23:48;99043.56;;;12.86;54.54
38038;BME280;23843;51.320;12.340;2024-02-26T11:26:16;99052.75;;;12.92;54.51
38038;BME280;23843;51.320;12.340;2024-02-26T11:28:43;99031.56;;;12.96;54.68
38038;BME280;23843;51.320;12.340;2024-02-26T11:31:10;99028.75;;;13.01;54.53
38038;BME280;23843;51.320;12.340;2024-02-26T11:33:36;99030.13;;;13.03;54.25
38038;BME280;23843;51.320;12.340;2024-02-26T11:36:02;99027.63;;;13.07;54.24
38038;BME280;23843;51.320;12.340;2024-02-26T11:38:27;99027.88;;;13.10;54.53
38038;BME280;23843;51.320;12.340;2024-02-26T11:41:13;99023.97;;;13.11;54.24
38038;BME280;23843;51.320;12.340;2024-02-26T11:43:53;99025.38;;;13.09;54.35
38038;BME280;23843;51.320;12.340;2024-02-26T11:46:25;99031.50;;;13.11;54.25
38038;BME280;23843;51.320;12.340;2024-02-26T11:48:50;99027.88;;;13.10;54.42
38038;BME280;23843;51.320;12.340;2024-02-26T11:51:16;99026.19;;;13.09;54.26
38038;BME280;23843;51.320;12.340;2024-02-26T11:53:46;99026.47;;;13.08;54.30
38038;BME280;23843;51.320;12.340;2024-02-26T11:56:22;99025.69;;;13.02;54.39
38038;BME280;23843;51.320;12.340;2024-02-26T11:58:48;99027.66;;;12.97;54.56
38038;BME280;23843;51.320;12.340;2024-02-26T12:01:37;99027.13;;;12.90;54.38
38038;BME280;23843;51.320;12.340;2024-02-26T12:04:04;99028.50;;;12.87;54.95
38038;BME280;23843;51.320;12.340;2024-02-26T12:06:30;99021.56;;;12.84;54.40
38038;BME280;23843;51.320;12.340;2024-02-26T12:08:56;99029.66;;;12.81;54.77
38038;BME280;23843;51.320;12.340;2024-02-26T12:11:22;99032.44;;;12.76;54.64
38038;BME280;23843;51.320;12.340;2024-02-26T12:13:47;99039.41;;;12.78;54.79
38038;BME280;23843;51.320;12.340;2024-02-26T12:16:38;99041.09;;;12.74;54.56
38038;BME280;23843;51.320;12.340;2024-02-26T12:19:04;99042.19;;;12.73;54.46
38038;BME280;23843;51.320;12.340;2024-02-26T12:21:30;99033.28;;;12.71;54.55
38038;BME280;23843;51.320;12.340;2024-02-26T12:23:55;99045.00;;;12.73;54.75
38038;BME280;23843;51.320;12.340;2024-02-26T12:26:21;99049.19;;;12.76;54.62
38038;BME280;23843;51.320;12.340;2024-02-26T12:28:47;99039.41;;;12.73;54.85
38038;BME280;23843;51.320;12.340;2024-02-26T12:31:13;99043.03;;;12.74;54.75
38038;BME280;23843;51.320;12.340;2024-02-26T12:33:39;99042.75;;;12.75;55.14
38038;BME280;23843;51.320;12.340;2024-02-26T12:36:05;99049.75;;;12.78;54.64
38038;BME280;23843;51.320;12.340;2024-02-26T12:38:31;99048.34;;;12.75;55.06
38038;BME280;23843;51.320;12.340;2024-02-26T12:40:57;99042.47;;;12.72;55.05
38038;BME280;23843;51.320;12.340;2024-02-26T12:43:22;99051.97;;;12.71;55.13
38038;BME280;23843;51.320;12.340;2024-02-26T12:45:48;99061.44;;;12.70;54.78
38038;BME280;23843;51.320;12.340;2024-02-26T12:48:13;99059.22;;;12.67;55.21
38038;BME280;23843;51.320;12.340;2024-02-26T12:50:44;99068.41;;;12.67;54.68